Time;durP1;ratioP1;P1;durP2;ratioP2;P2;SDS_P1;SDS_P2;PMS_P1;PMS_P2;Temp;Humidity;BMP_temperature;BMP_pressure;BME280_temperature;BME280_humidity;BME280_pressure;Samples;Min_cycle;Max_cycle;Signal;HPM_P1;HPM_P2
2023/12/01 00:00:25;;;;;;;10.43;7.68;;;4.10;89.70;;;;;;5005888;28;20041;-67
2023/12/01 00:02:51;;;;;;;9.80;7.63;;;4.10;89.80;;;;;;5006905;28;20037;-67
2023/12/01 00:05:16;;;;;;;8.98;7.03;;;4.10;89.80;;;;;;5006793;28;20666;-67
2023/12/01 00:07:42;;;;;;;9.27;7.65;;;4.10;89.90;;;;;;5006959;28;20038;-67
2023/12/01 00:10:13;;;;;;;10.20;8.25;;;4.10;89.90;;;;;;5005429;28;20038;-66
2023/12/01 00:12:39;;;;;;;10.27;8.40;;;4.10;90.00;;;;;;5005785;28;20441;-67
2023/12/01 00:15:05;;;;;;;10.48;8.32;;;4.20;90.00;;;;;;5006712;28;20030;-67
2023/12/01 00:17:32;;;;;;;9.77;8.07;;;4.20;90.00;;;;;;5005546;28;20041;-66
2023/12/01 00:19:58;;;;;;;9.57;7.43;;;4.20;90.00;;;;;;5006535;28;20038;-67
2023/12/01 00:22:24;;;;;;;10.88;7.43;;;4.20;90.00;;;;;;5006078;28;20033;-66
2023/12/01 00:24:49;;;;;;;8.45;6.90;;;4.20;89.90;;;;;;5006184;28;20034;-66
2023/12/01 00:27:15;;;;;;;10.68;7.75;;;4.20;89.80;;;;;;5006060;28;20041;-66
2023/12/01 00:29:42;;;;;;;11.60;8.10;;;4.20;89.80;;;;;;5006369;28;20045;-65
2023/12/01 00:32:07;;;;;;;8.98;7.50;;;4.20;89.80;;;;;;5006421;28;20030;-66
2023/12/01 00:34:33;;;;;;;8.10;7.15;;;4.20;89.60;;;;;;5004801;28;20056;-66
2023/12/01 00:37:30;;;;;;;8.15;6.82;;;4.20;89.70;;;;;;5005921;28;20522;-67
2023/12/01 00:39:56;;;;;;;8.48;7.50;;;4.20;89.90;;;;;;5006929;28;20067;-66
2023/12/01 00:42:21;;;;;;;8.60;7.60;;;4.20;89.70;;;;;;5006026;28;20053;-66
2023/12/01 00:44:47;;;;;;;8.75;7.38;;;4.20;89.70;;;;;;5006312;28;20049;-66
2023/12/01 00:47:13;;;;;;;8.50;7.22;;;4.10;89.80;;;;;;5006633;28;20026;-67
2023/12/01 00:49:38;;;;;;;7.43;6.68;;;4.20;89.90;;;;;;4993675;28;20339;-67
2023/12/01 00:52:04;;;;;;;10.23;6.97;;;4.20;90.00;;;;;;5005617;28;20044;-66
2023/12/01 00:54:30;;;;;;;8.52;7.32;;;4.20;90.00;;;;;;5005454;28;20107;-66
2023/12/01 00:56:56;;;;;;;10.10;8.18;;;4.20;90.00;;;;;;4989145;28;20045;-66
2023/12/01 00:59:21;;;;;;;12.10;8.75;;;4.20;90.00;;;;;;5005786;28;20052;-66
2023/12/01 01:01:47;;;;;;;11.20;8.45;;;4.10;89.80;;;;;;5005374;28;20027;-66
2023/12/01 01:04:13;;;;;;;11.25;8.30;;;4.10;89.80;;;;;;5006073;28;20447;-68
2023/12/01 01:06:38;;;;;;;10.32;8.45;;;4.10;90.00;;;;;;5005732;28;20032;-66
2023/12/01 01:09:04;;;;;;;11.32;9.10;;;4.10;90.30;;;;;;5005552;28;20449;-66
2023/12/01 01:11:30;;;;;;;11.35;8.85;;;4.10;90.00;;;;;;5003276;28;20037;-66
2023/12/01 01:13:56;;;;;;;13.80;9.75;;;4.00;90.00;;;;;;5004635;28;20064;-67
2023/12/01 01:16:22;;;;;;;11.77;9.45;;;4.10;90.00;;;;;;5005466;28;20070;-66
2023/12/01 01:18:47;;;;;;;12.32;9.07;;;4.00;90.00;;;;;;5005735;28;20088;-67
2023/12/01 01:21:13;;;;;;;12.02;8.77;;;4.00;90.10;;;;;;5006810;28;20505;-67
2023/12/01 01:23:39;;;;;;;11.60;9.02;;;4.00;90.20;;;;;;5003855;28;20037;-66
2023/12/01 01:26:06;;;;;;;10.70;8.45;;;4.00;90.20;;;;;;5006226;28;20042;-67
2023/12/01 01:28:31;;;;;;;12.55;9.05;;;4.00;90.20;;;;;;5004297;28;20056;-67
2023/12/01 01:30:57;;;;;;;11.63;8.70;;;4.00;90.20;;;;;;5004613;28;20513;-66
2023/12/01 01:33:23;;;;;;;11.68;8.73;;;4.00;90.30;;;;;;5006115;28;20623;-66
2023/12/01 01:35:48;;;;;;;10.32;8.40;;;4.00;90.20;;;;;;5006724;28;20040;-65
2023/12/01 01:38:14;;;;;;;10.32;8.35;;;4.10;90.20;;;;;;4988888;28;20124;-66
2023/12/01 01:40:40;;;;;;;10.30;8.35;;;4.00;90.10;;;;;;5006056;28;20030;-66
2023/12/01 01:43:05;;;;;;;9.30;7.78;;;4.10;90.10;;;;;;5006884;28;20556;-66
2023/12/01 01:45:31;;;;;;;10.90;8.95;;;4.10;90.10;;;;;;5006334;28;20128;-66
2023/12/01 01:47:58;;;;;;;10.93;8.27;;;4.10;90.10;;;;;;5006621;28;20045;-66
2023/12/01 01:50:23;;;;;;;8.95;7.70;;;4.00;90.10;;;;;;5006375;28;20033;-66
2023/12/01 01:52:51;;;;;;;9.02;7.60;;;4.00;90.10;;;;;;5006186;28;20107;-65
2023/12/01 01:55:16;;;;;;;10.38;8.10;;;4.00;90.10;;;;;;4996179;28;20305;-66
2023/12/01 01:57:45;;;;;;;9.02;7.55;;;4.00;90.20;;;;;;5006221;28;20156;-66
2023/12/01 02:00:16;;;;;;;9.70;7.82;;;4.00;90.30;;;;;;5005852;28;20057;-66
2023/12/01 02:02:42;;;;;;;9.00;7.63;;;4.00;90.30;;;;;;5003101;28;20042;-66
2023/12/01 02:05:13;;;;;;;9.32;8.02;;;4.10;90.30;;;;;;5006652;28;20068;-66
2023/12/01 02:07:38;;;;;;;11.70;8.63;;;4.10;90.30;;;;;;5005764;28;20041;-66
2023/12/01 02:10:04;;;;;;;10.35;8.45;;;4.10;90.20;;;;;;4987706;28;20545;-66
2023/12/01 02:12:30;;;;;;;9.73;7.88;;;4.10;90.50;;;;;;5002978;28;20056;-66
2023/12/01 02:14:55;;;;;;;9.07;7.53;;;4.10;90.10;;;;;;5005459;28;20045;-66
2023/12/01 02:17:21;;;;;;;9.10;7.97;;;4.10;90.10;;;;;;5004062;28;20048;-66
2023/12/01 02:19:47;;;;;;;8.77;7.80;;;4.10;90.10;;;;;;5005336;28;20561;-66
2023/12/01 02:22:12;;;;;;;9.40;7.63;;;4.10;90.20;;;;;;5003750;28;20052;-66
2023/12/01 02:24:38;;;;;;;9.70;8.07;;;4.10;90.20;;;;;;5003567;28;20040;-66
2023/12/01 02:27:04;;;;;;;10.90;8.85;;;4.20;90.20;;;;;;4987170;28;20220;-67
2023/12/01 02:29:29;;;;;;;11.50;8.63;;;4.20;90.20;;;;;;5004134;28;20057;-66
2023/12/01 02:31:55;;;;;;;10.05;8.55;;;4.20;90.20;;;;;;5003745;28;20045;-66
2023/12/01 02:34:21;;;;;;;10.40;8.45;;;4.20;90.20;;;;;;5004672;28;20184;-66
2023/12/01 02:36:47;;;;;;;9.38;8.35;;;4.20;90.10;;;;;;5004458;28;20127;-66
2023/12/01 02:39:13;;;;;;;12.00;9.10;;;4.20;90.10;;;;;;5004384;28;20549;-66
2023/12/01 02:41:39;;;;;;;10.48;8.70;;;4.30;90.10;;;;;;5004671;28;20038;-67
2023/12/01 02:44:05;;;;;;;9.35;8.15;;;4.30;90.10;;;;;;5005385;28;20400;-67
2023/12/01 02:46:30;;;;;;;9.93;8.15;;;4.30;90.10;;;;;;5003512;28;20044;-66
2023/12/01 02:48:56;;;;;;;10.35;8.65;;;4.30;90.00;;;;;;5003369;28;20034;-66
2023/12/01 02:51:23;;;;;;;10.98;8.52;;;4.30;90.00;;;;;;5004600;28;20026;-66
2023/12/01 02:53:48;;;;;;;10.98;9.07;;;4.30;90.00;;;;;;5003772;28;20290;-66
2023/12/01 02:56:14;;;;;;;8.73;7.28;;;4.30;90.00;;;;;;5004706;28;20377;-66
2023/12/01 02:58:40;;;;;;;10.77;8.70;;;4.30;89.90;;;;;;5004464;28;20068;-66
2023/12/01 03:01:05;;;;;;;10.07;8.82;;;4.30;89.90;;;;;;5008070;28;20128;-66
2023/12/01 03:03:31;;;;;;;11.52;8.60;;;4.30;89.90;;;;;;5005769;28;20038;-66
2023/12/01 03:05:56;;;;;;;9.90;8.25;;;4.30;89.90;;;;;;5008376;28;20045;-66
2023/12/01 03:08:22;;;;;;;10.75;8.18;;;4.30;89.80;;;;;;5006813;28;20053;-66
2023/12/01 03:10:48;;;;;;;9.38;7.78;;;4.30;89.90;;;;;;5003975;28;20050;-66
2023/12/01 03:13:13;;;;;;;8.45;7.25;;;4.30;89.90;;;;;;5007346;28;20037;-67
2023/12/01 03:15:41;;;;;;;10.35;7.60;;;4.30;89.80;;;;;;5007925;28;20054;-66
2023/12/01 03:18:06;;;;;;;9.23;7.68;;;4.30;89.80;;;;;;5007858;28;20034;-67
2023/12/01 03:20:32;;;;;;;9.80;8.32;;;4.30;89.80;;;;;;5007467;28;20037;-66
2023/12/01 03:22:58;;;;;;;10.15;8.43;;;4.30;89.80;;;;;;5008633;28;20041;-66
2023/12/01 03:25:23;;;;;;;11.43;8.18;;;4.30;89.90;;;;;;5007138;28;20026;-66
2023/12/01 03:27:49;;;;;;;12.00;8.70;;;4.30;90.00;;;;;;5008195;28;20033;-66
2023/12/01 03:30:16;;;;;;;10.02;8.32;;;4.30;90.00;;;;;;5007042;28;20419;-66
2023/12/01 03:32:52;;;;;;;9.82;8.13;;;4.30;90.00;;;;;;5006262;28;20034;-66
2023/12/01 03:35:22;;;;;;;10.45;7.97;;;4.30;90.00;;;;;;5007285;28;20034;-66
2023/12/01 03:37:49;;;;;;;10.57;8.35;;;4.30;90.00;;;;;;5006611;28;20095;-67
2023/12/01 03:40:15;;;;;;;9.20;7.47;;;4.30;90.00;;;;;;5006655;28;20034;-67
2023/12/01 03:42:46;;;;;;;10.38;7.82;;;4.30;90.00;;;;;;5007283;28;20038;-67
2023/12/01 03:45:13;;;;;;;8.98;7.40;;;4.30;90.00;;;;;;5007017;28;20113;-66
2023/12/01 03:47:44;;;;;;;9.60;8.15;;;4.30;89.90;;;;;;5006729;28;20034;-67
2023/12/01 03:50:11;;;;;;;9.40;7.65;;;4.30;89.90;;;;;;4990691;28;20406;-66
2023/12/01 03:52:42;;;;;;;11.43;7.97;;;4.30;89.80;;;;;;5005907;28;20525;-66
2023/12/01 03:55:08;;;;;;;9.70;7.43;;;4.30;89.80;;;;;;5006573;28;20038;-66
2023/12/01 03:57:34;;;;;;;12.30;8.10;;;4.40;89.80;;;;;;5007850;28;20339;-67
2023/12/01 04:00:00;;;;;;;10.38;7.85;;;4.40;89.80;;;;;;5005744;28;20549;-67
2023/12/01 04:02:26;;;;;;;8.52;7.57;;;4.40;89.80;;;;;;5005250;28;20038;-67
2023/12/01 04:04:52;;;;;;;10.02;7.97;;;4.40;89.70;;;;;;5006559;28;20034;-66
2023/12/01 04:07:17;;;;;;;8.27;7.47;;;4.30;89.60;;;;;;5006158;28;20037;-66
2023/12/01 04:09:43;;;;;;;9.20;7.38;;;4.40;90.20;;;;;;4988150;28;20034;-65
2023/12/01 04:12:09;;;;;;;10.13;7.90;;;4.30;89.60;;;;;;5004910;28;20073;-66
2023/12/01 04:14:35;;;;;;;9.43;7.75;;;4.40;89.70;;;;;;5005357;28;20037;-66
2023/12/01 04:17:08;;;;;;;8.40;7.30;;;4.40;89.60;;;;;;5007022;28;20049;-66
2023/12/01 04:19:38;;;;;;;8.27;7.22;;;4.40;89.60;;;;;;5007025;28;20049;-67
2023/12/01 04:22:05;;;;;;;9.32;7.40;;;4.30;89.50;;;;;;4988254;28;20461;-66
2023/12/01 04:24:35;;;;;;;9.38;7.88;;;4.30;89.60;;;;;;5006235;28;20049;-66
2023/12/01 04:27:07;;;;;;;12.05;8.35;;;4.30;89.60;;;;;;5005520;28;20061;-67
2023/12/01 04:29:32;;;;;;;9.60;7.70;;;4.30;89.70;;;;;;5006310;28;20034;-66
2023/12/01 04:31:58;;;;;;;9.95;7.63;;;4.30;89.60;;;;;;5006184;28;20568;-66
2023/12/01 04:34:26;;;;;;;8.93;7.38;;;4.40;89.70;;;;;;5005664;28;20250;-67
2023/12/01 04:36:55;;;;;;;9.30;7.60;;;4.40;89.80;;;;;;5006595;28;20076;-66
2023/12/01 04:39:20;;;;;;;9.20;7.53;;;4.40;89.80;;;;;;5007266;28;20622;-66
2023/12/01 04:41:48;;;;;;;8.95;7.43;;;4.40;89.70;;;;;;5007769;28;20200;-67
2023/12/01 04:44:14;;;;;;;9.82;7.28;;;4.40;89.80;;;;;;5007647;28;20157;-67
2023/12/01 04:46:40;;;;;;;8.13;6.97;;;4.30;90.20;;;;;;5006015;28;20116;-67
2023/12/01 04:49:08;;;;;;;8.77;7.38;;;4.30;89.70;;;;;;5005399;28;20038;-66
2023/12/01 04:51:37;;;;;;;9.13;7.18;;;4.30;89.60;;;;;;5003984;28;20171;-66
2023/12/01 04:54:06;;;;;;;7.88;7.07;;;4.40;89.70;;;;;;5006547;28;20030;-66
2023/12/01 04:56:32;;;;;;;9.63;6.70;;;4.20;89.60;;;;;;5004984;28;20509;-66
2023/12/01 04:58:58;;;;;;;10.75;8.63;;;4.30;89.60;;;;;;5004653;28;20449;-66
2023/12/01 05:01:23;;;;;;;8.80;7.65;;;4.30;89.60;;;;;;5005267;28;20286;-67
2023/12/01 05:03:49;;;;;;;8.15;7.03;;;4.40;89.60;;;;;;5003946;28;20034;-66
2023/12/01 05:06:15;;;;;;;8.88;7.55;;;4.30;89.50;;;;;;5005960;28;20598;-66
2023/12/01 05:08:40;;;;;;;10.75;8.15;;;4.30;89.50;;;;;;5003744;28;20030;-66
2023/12/01 05:11:06;;;;;;;9.93;8.05;;;4.40;89.60;;;;;;5004920;28;20441;-66
2023/12/01 05:13:31;;;;;;;10.43;8.85;;;4.40;89.60;;;;;;5006178;28;20029;-66
2023/12/01 05:15:57;;;;;;;11.32;8.95;;;4.30;89.40;;;;;;5004622;28;20045;-65
2023/12/01 05:18:23;;;;;;;12.70;9.48;;;4.30;89.40;;;;;;5004209;28;20026;-66
2023/12/01 05:20:49;;;;;;;13.18;9.38;;;4.30;89.40;;;;;;5005422;28;20030;-66
2023/12/01 05:23:15;;;;;;;9.43;7.90;;;4.30;89.50;;;;;;5005817;28;20049;-66
2023/12/01 05:25:44;;;;;;;11.32;8.85;;;4.30;89.50;;;;;;5005756;28;20049;-66
2023/12/01 05:28:10;;;;;;;11.93;8.73;;;4.30;89.50;;;;;;5005003;28;20038;-66
2023/12/01 05:30:45;;;;;;;8.55;7.22;;;4.40;89.60;;;;;;5002919;28;20929;-66
2023/12/01 05:33:11;;;;;;;7.55;6.82;;;4.30;89.60;;;;;;5006210;28;20134;-67
2023/12/01 05:35:39;;;;;;;7.82;6.50;;;4.30;89.40;;;;;;5006515;28;20113;-66
2023/12/01 05:38:05;;;;;;;7.50;5.93;;;4.30;90.10;;;;;;5004723;28;20437;-66
2023/12/01 05:40:34;;;;;;;6.40;5.80;;;4.30;89.50;;;;;;5005111;28;20038;-66
2023/12/01 05:43:00;;;;;;;6.78;6.03;;;4.30;90.00;;;;;;5005804;28;20034;-66
2023/12/01 05:45:27;;;;;;;5.95;5.35;;;4.30;89.80;;;;;;5005739;28;20058;-66
2023/12/01 05:47:54;;;;;;;6.65;5.78;;;4.20;89.80;;;;;;5005482;28;20033;-66
2023/12/01 05:50:22;;;;;;;6.53;5.40;;;4.20;89.80;;;;;;5003745;28;20449;-66
2023/12/01 05:52:50;;;;;;;6.40;5.70;;;4.30;90.00;;;;;;5003979;28;20041;-66
2023/12/01 05:55:24;;;;;;;7.00;5.97;;;4.30;90.00;;;;;;4986693;28;20109;-67
2023/12/01 05:57:51;;;;;;;10.80;7.35;;;4.30;90.00;;;;;;5005270;28;20042;-66
2023/12/01 06:00:20;;;;;;;9.50;7.70;;;4.30;90.00;;;;;;5004031;28;20041;-67
2023/12/01 06:02:50;;;;;;;8.75;7.30;;;4.30;90.00;;;;;;5003136;28;20034;-66
2023/12/01 06:05:17;;;;;;;12.75;8.43;;;4.30;90.00;;;;;;5004393;28;20514;-66
2023/12/01 06:07:45;;;;;;;8.75;7.20;;;4.30;90.00;;;;;;5004235;28;20556;-66
2023/12/01 06:10:13;;;;;;;9.93;7.22;;;4.30;89.80;;;;;;5003107;28;20050;-67
2023/12/01 06:12:39;;;;;;;9.10;7.53;;;4.30;89.80;;;;;;5002447;28;20413;-67
2023/12/01 06:15:13;;;;;;;9.52;7.45;;;4.30;90.30;;;;;;4987774;28;20401;-66
2023/12/01 06:17:41;;;;;;;9.45;7.47;;;4.30;90.00;;;;;;5003946;28;20041;-66
2023/12/01 06:20:17;;;;;;;7.65;6.50;;;4.30;89.90;;;;;;5004271;28;20087;-66
2023/12/01 06:23:06;;;;;;;8.40;6.80;;;4.30;89.90;;;;;;5003859;28;20177;-66
2023/12/01 06:25:33;;;;;;;8.20;7.22;;;4.30;90.00;;;;;;5003447;28;20030;-66
2023/12/01 06:28:01;;;;;;;10.20;7.60;;;4.30;89.90;;;;;;5003698;28;20069;-66
2023/12/01 06:30:32;;;;;;;9.20;7.00;;;4.30;90.00;;;;;;5003371;28;20038;-67
2023/12/01 06:33:00;;;;;;;14.40;9.32;;;4.20;89.80;;;;;;4995511;28;20049;-67
2023/12/01 06:35:26;;;;;;;20.65;14.50;;;4.20;89.80;;;;;;5006149;28;20087;-66
2023/12/01 06:37:52;;;;;;;25.73;15.70;;;4.30;89.80;;;;;;5005506;28;20040;-67
2023/12/01 06:40:20;;;;;;;20.05;12.20;;;4.20;89.70;;;;;;4987676;28;20030;-67
2023/12/01 06:42:51;;;;;;;16.92;10.95;;;4.20;89.70;;;;;;5004108;28;20038;-67
2023/12/01 06:45:18;;;;;;;15.90;10.70;;;4.20;89.80;;;;;;5005951;28;20050;-67
2023/12/01 06:47:46;;;;;;;14.50;10.00;;;4.10;89.80;;;;;;5005353;28;20026;-67
2023/12/01 06:50:16;;;;;;;11.55;9.30;;;4.10;90.00;;;;;;5005722;28;20037;-67
2023/12/01 06:52:47;;;;;;;10.07;8.50;;;4.10;90.00;;;;;;5005322;28;20061;-67
2023/12/01 06:55:12;;;;;;;11.25;8.82;;;4.00;90.00;;;;;;5005486;28;20461;-67
2023/12/01 06:57:46;;;;;;;10.40;8.25;;;4.00;90.10;;;;;;5004820;28;20056;-67
2023/12/01 07:00:33;;;;;;;11.00;7.90;;;4.00;90.10;;;;;;5003016;28;20076;-67
2023/12/01 07:03:07;;;;;;;9.20;7.72;;;4.00;90.30;;;;;;4982085;28;20042;-68
2023/12/01 07:05:34;;;;;;;;;;;4.00;90.30;;;;;;4991885;28;20117;-67
2023/12/01 07:08:01;;;;;;;9.10;7.03;;;4.10;90.50;;;;;;4993027;28;19921;-68
2023/12/01 07:10:27;;;;;;;9.00;7.32;;;4.00;90.20;;;;;;4996613;28;20037;-67
2023/12/01 07:12:53;;;;;;;9.10;7.13;;;3.90;90.20;;;;;;4996435;28;20030;-68
2023/12/01 07:15:22;;;;;;;8.93;7.97;;;4.00;90.30;;;;;;4993192;28;20088;-69
2023/12/01 07:17:56;;;;;;;9.52;7.85;;;4.00;90.30;;;;;;4997598;28;20049;-67
2023/12/01 07:20:22;;;;;;;8.88;7.55;;;4.00;90.40;;;;;;4995668;28;20040;-67
2023/12/01 07:22:51;;;;;;;8.77;7.85;;;4.10;90.30;;;;;;4995825;28;20579;-68
2023/12/01 07:25:25;;;;;;;9.00;7.82;;;4.10;90.30;;;;;;4999057;28;20397;-67
2023/12/01 07:27:59;;;;;;;8.95;7.68;;;4.10;90.30;;;;;;4998514;28;20034;-67
2023/12/01 07:30:26;;;;;;;11.47;8.40;;;4.10;90.30;;;;;;4992276;28;20037;-68
2023/12/01 07:32:53;;;;;;;9.95;8.13;;;4.10;90.30;;;;;;4984772;28;20281;-67
2023/12/01 07:35:19;;;;;;;14.75;8.88;;;4.10;90.20;;;;;;4997080;28;20484;-68
2023/12/01 07:37:46;;;;;;;11.25;8.60;;;4.10;90.20;;;;;;4980888;28;20053;-68
2023/12/01 07:40:13;;;;;;;10.57;8.65;;;4.10;90.30;;;;;;4999080;28;20084;-68
2023/12/01 07:42:41;;;;;;;10.45;8.13;;;4.10;90.30;;;;;;4983999;28;20152;-68
2023/12/01 07:45:07;;;;;;;10.75;8.05;;;4.20;90.30;;;;;;4992789;28;20032;-68
2023/12/01 07:47:33;;;;;;;9.73;7.70;;;4.20;90.30;;;;;;4998929;28;20034;-68
2023/12/01 07:49:59;;;;;;;9.52;7.35;;;4.20;90.30;;;;;;5000569;28;20049;-67
2023/12/01 07:52:25;;;;;;;9.75;7.65;;;4.20;90.30;;;;;;4995224;28;20514;-68
2023/12/01 07:54:51;;;;;;;8.63;7.28;;;4.20;90.30;;;;;;5001029;28;20462;-68
2023/12/01 07:57:16;;;;;;;9.07;7.80;;;4.20;90.30;;;;;;4999273;28;20034;-67
2023/12/01 07:59:42;;;;;;;9.90;8.20;;;4.20;90.20;;;;;;5000427;28;20034;-68
2023/12/01 08:02:09;;;;;;;9.13;7.35;;;4.30;90.20;;;;;;4995722;28;20541;-68
2023/12/01 08:04:35;;;;;;;8.93;7.55;;;4.30;90.10;;;;;;5004088;28;20049;-67
2023/12/01 08:07:01;;;;;;;10.27;8.30;;;4.30;90.10;;;;;;5005448;28;20038;-68
2023/12/01 08:09:31;;;;;;;10.75;8.73;;;4.30;90.10;;;;;;5001965;28;20532;-68
2023/12/01 08:12:00;;;;;;;9.80;7.93;;;4.30;90.10;;;;;;4999701;28;20046;-68
2023/12/01 08:14:26;;;;;;;10.32;8.30;;;4.30;90.10;;;;;;5002210;28;20041;-69
2023/12/01 08:16:55;;;;;;;11.90;8.48;;;4.30;90.10;;;;;;5002460;28;20043;-68
2023/12/01 08:19:20;;;;;;;11.98;8.75;;;4.30;90.10;;;;;;5002379;28;20121;-68
2023/12/01 08:21:46;;;;;;;13.05;9.90;;;4.30;90.00;;;;;;5004261;28;20793;-68
2023/12/01 08:24:12;;;;;;;12.95;9.90;;;4.30;90.00;;;;;;4998156;28;20083;-68
2023/12/01 08:26:37;;;;;;;11.60;9.20;;;4.30;90.00;;;;;;5001964;28;20034;-68
2023/12/01 08:29:04;;;;;;;11.02;8.43;;;4.20;90.00;;;;;;5002193;28;20298;-68
2023/12/01 08:31:32;;;;;;;11.77;8.52;;;4.20;90.10;;;;;;5000052;28;20034;-68
2023/12/01 08:33:58;;;;;;;11.48;8.70;;;4.20;90.20;;;;;;4986211;28;22210;-68
2023/12/01 08:36:24;;;;;;;13.23;9.07;;;4.20;90.20;;;;;;4985445;28;20036;-69
2023/12/01 08:38:50;;;;;;;11.93;9.27;;;4.20;90.20;;;;;;5002447;28;20497;-68
2023/12/01 08:41:16;;;;;;;12.07;8.80;;;4.30;90.30;;;;;;5000754;28;20080;-68
2023/12/01 08:43:41;;;;;;;13.68;9.90;;;4.30;90.30;;;;;;5000772;28;20100;-69
2023/12/01 08:46:07;;;;;;;10.57;8.73;;;4.30;90.20;;;;;;4996277;28;20104;-68
2023/12/01 08:48:33;;;;;;;10.77;8.73;;;4.30;90.20;;;;;;4996166;28;20111;-68
2023/12/01 08:50:58;;;;;;;11.50;8.70;;;4.30;90.20;;;;;;4997311;28;20069;-68
2023/12/01 08:53:24;;;;;;;11.00;8.70;;;4.30;90.10;;;;;;5004783;28;20460;-66
2023/12/01 08:55:50;;;;;;;10.75;8.50;;;4.30;90.00;;;;;;4997752;28;20041;-68
2023/12/01 08:58:17;;;;;;;13.88;9.40;;;4.30;90.00;;;;;;5001088;28;20323;-69
2023/12/01 09:00:43;;;;;;;13.32;10.02;;;4.30;90.10;;;;;;5000570;28;20121;-69
2023/12/01 09:03:09;;;;;;;12.80;9.88;;;4.30;90.10;;;;;;5004564;28;20121;-69
2023/12/01 09:05:35;;;;;;;13.80;9.73;;;4.30;90.20;;;;;;5002309;28;20718;-69
2023/12/01 09:08:04;;;;;;;13.85;9.98;;;4.30;90.20;;;;;;5002543;28;20034;-68
2023/12/01 09:10:30;;;;;;;12.18;8.93;;;4.30;90.20;;;;;;5000244;28;20133;-68
2023/12/01 09:12:55;;;;;;;14.23;10.10;;;4.30;90.20;;;;;;4988991;28;20464;-69
2023/12/01 09:15:21;;;;;;;11.93;9.45;;;4.30;90.10;;;;;;5004810;28;21108;-67
2023/12/01 09:17:46;;;;;;;13.02;8.60;;;4.30;90.10;;;;;;5002199;28;20096;-67
2023/12/01 09:20:12;;;;;;;12.02;9.13;;;4.40;90.10;;;;;;4998008;28;20398;-66
2023/12/01 09:22:38;;;;;;;11.45;8.95;;;4.30;90.10;;;;;;5001267;28;20128;-67
2023/12/01 09:25:04;;;;;;;11.43;8.35;;;4.30;90.10;;;;;;4999376;28;20044;-67
2023/12/01 09:27:30;;;;;;;11.15;8.25;;;4.30;90.20;;;;;;4997957;28;20034;-66
2023/12/01 09:29:56;;;;;;;11.30;8.63;;;4.40;90.20;;;;;;5003057;28;20520;-66
2023/12/01 09:32:21;;;;;;;12.00;8.55;;;4.40;90.20;;;;;;5002182;28;20495;-66
2023/12/01 09:34:47;;;;;;;11.45;8.70;;;4.40;90.30;;;;;;4996645;28;20041;-66
2023/12/01 09:37:13;;;;;;;10.35;8.13;;;4.40;90.50;;;;;;5003341;28;20056;-66
2023/12/01 09:39:39;;;;;;;13.18;9.30;;;4.40;90.10;;;;;;5002448;28;20129;-66
2023/12/01 09:42:06;;;;;;;12.90;9.43;;;4.40;90.10;;;;;;5001341;28;20125;-65
2023/12/01 09:44:37;;;;;;;11.65;8.80;;;4.40;90.00;;;;;;5002794;28;20065;-65
2023/12/01 09:47:12;;;;;;;11.45;8.57;;;4.40;90.00;;;;;;5002897;28;20076;-67
2023/12/01 09:49:38;;;;;;;10.43;7.95;;;4.30;90.00;;;;;;5003040;28;20046;-66
2023/12/01 09:52:05;;;;;;;11.73;8.73;;;4.30;89.90;;;;;;4998169;28;20494;-67
2023/12/01 09:54:31;;;;;;;12.23;9.27;;;4.30;90.00;;;;;;5003295;28;20037;-66
2023/12/01 09:57:06;;;;;;;17.27;10.38;;;4.30;90.10;;;;;;5004594;28;20049;-67
2023/12/01 09:59:35;;;;;;;;;;;4.20;90.10;;;;;;5003547;28;20325;-65
2023/12/01 10:02:02;;;;;;;12.82;8.52;;;4.30;90.30;;;;;;5003101;28;20063;-66
2023/12/01 10:04:29;;;;;;;12.55;8.93;;;4.20;90.10;;;;;;5003951;28;20449;-67
2023/12/01 10:06:57;;;;;;;12.52;8.95;;;4.10;90.50;;;;;;5002586;28;20038;-66
2023/12/01 10:09:27;;;;;;;13.27;9.02;;;4.20;90.20;;;;;;5000937;28;20052;-67
2023/12/01 10:12:07;;;;;;;12.30;8.85;;;4.10;90.20;;;;;;4981177;28;20057;-67
2023/12/01 10:14:37;;;;;;;15.80;9.98;;;4.10;90.30;;;;;;4997725;28;20034;-67
2023/12/01 10:17:04;;;;;;;14.38;9.00;;;4.10;90.20;;;;;;5001004;28;20046;-67
2023/12/01 10:19:44;;;;;;;13.93;9.75;;;4.10;90.30;;;;;;4999289;28;20040;-67
2023/12/01 10:22:11;;;;;;;14.98;9.52;;;4.10;90.40;;;;;;4985290;28;20109;-66
2023/12/01 10:24:37;;;;;;;12.40;9.30;;;4.10;90.40;;;;;;5002946;28;20433;-67
2023/12/01 10:27:05;;;;;;;13.13;8.90;;;4.10;90.40;;;;;;5003202;28;20061;-69
2023/12/01 10:29:31;;;;;;;13.18;9.25;;;4.10;90.40;;;;;;5005594;28;20118;-67
2023/12/01 10:32:06;;;;;;;11.30;8.70;;;4.10;90.40;;;;;;5006164;28;20394;-66
2023/12/01 10:34:33;;;;;;;10.60;8.23;;;4.10;90.40;;;;;;5005085;28;20536;-69
2023/12/01 10:36:59;;;;;;;12.00;8.52;;;4.10;90.40;;;;;;5006205;28;20523;-67
2023/12/01 10:39:29;;;;;;;11.52;8.55;;;4.10;90.40;;;;;;5005968;28;20133;-66
2023/12/01 10:41:59;;;;;;;12.82;9.02;;;4.10;90.40;;;;;;5006459;28;20026;-66
2023/12/01 10:44:28;;;;;;;11.75;8.20;;;4.10;90.40;;;;;;5005475;28;20517;-69
2023/12/01 10:46:56;;;;;;;9.55;7.88;;;4.20;90.40;;;;;;5005321;28;20038;-67
2023/12/01 10:49:22;;;;;;;11.95;7.97;;;4.20;90.30;;;;;;5004595;28;20038;-67
2023/12/01 10:51:52;;;;;;;13.55;8.68;;;4.20;90.30;;;;;;5005912;28;20038;-67
2023/12/01 10:54:23;;;;;;;12.50;8.77;;;4.20;90.30;;;;;;5003505;28;20505;-69
2023/12/01 10:57:11;;;;;;;9.52;7.70;;;4.20;90.30;;;;;;5003260;28;20500;-66
2023/12/01 10:59:38;;;;;;;10.13;7.82;;;4.10;90.20;;;;;;5004127;28;20038;-67
2023/12/01 11:02:05;;;;;;;10.90;8.23;;;4.10;90.30;;;;;;5006776;28;20042;-67
2023/12/01 11:04:33;;;;;;;12.27;8.57;;;4.10;90.40;;;;;;5005185;28;20034;-69
2023/12/01 11:07:04;;;;;;;12.43;9.10;;;4.10;90.40;;;;;;5006298;28;20100;-69
2023/12/01 11:09:57;;;;;;;12.38;8.77;;;4.10;90.40;;;;;;5005833;28;20084;-69
2023/12/01 11:13:11;;;;;;;10.93;8.48;;;4.10;90.40;;;;;;5005273;28;20046;-69
2023/12/01 11:15:39;;;;;;;12.55;8.45;;;4.20;90.50;;;;;;4987894;28;20034;-69
2023/12/01 11:18:08;;;;;;;12.68;8.80;;;4.20;90.30;;;;;;5005986;28;20030;-68
2023/12/01 11:20:41;;;;;;;11.65;8.73;;;4.20;90.30;;;;;;5007468;28;20034;-67
2023/12/01 11:23:12;;;;;;;12.45;9.30;;;4.20;90.30;;;;;;5009902;28;20041;-67
2023/12/01 11:25:46;;;;;;;12.27;8.82;;;4.20;90.30;;;;;;5009128;28;20031;-67
2023/12/01 11:28:23;;;;;;;11.90;8.63;;;4.20;90.30;;;;;;5009922;28;20091;-67
2023/12/01 11:31:08;;;;;;;12.02;8.45;;;4.20;90.40;;;;;;5009977;28;20050;-70
2023/12/01 11:33:50;;;;;;;12.73;8.13;;;4.20;90.40;;;;;;5010337;28;20049;-67
2023/12/01 11:36:19;;;;;;;11.95;8.65;;;4.20;90.40;;;;;;5010117;28;20448;-67
2023/12/01 11:41:55;;;;;;;12.90;9.05;;;4.20;90.30;;;;;;5010168;28;20707;-65
2023/12/01 11:44:24;;;;;;;12.18;9.13;;;4.20;90.30;;;;;;5009894;28;20042;-65
2023/12/01 11:46:57;;;;;;;11.77;8.88;;;4.20;90.30;;;;;;5009857;28;20034;-68
2023/12/01 11:49:33;;;;;;;13.07;9.15;;;4.30;90.30;;;;;;5009526;28;20026;-66
2023/12/01 11:52:03;;;;;;;11.00;8.15;;;4.30;90.30;;;;;;5009726;28;20030;-66
2023/12/01 11:54:33;;;;;;;11.23;8.48;;;4.30;90.20;;;;;;4991417;28;20135;-65
2023/12/01 11:56:58;;;;;;;11.07;8.43;;;4.30;90.20;;;;;;5009614;28;20037;-66
2023/12/01 11:59:24;;;;;;;10.35;8.38;;;4.30;90.20;;;;;;4990224;28;20057;-64
2023/12/01 12:01:53;;;;;;;10.43;7.90;;;4.30;90.20;;;;;;5009521;28;20497;-64
2023/12/01 12:04:19;;;;;;;10.88;8.60;;;4.30;90.30;;;;;;5008461;28;20033;-67
2023/12/01 12:06:46;;;;;;;10.50;7.75;;;4.30;90.20;;;;;;5005341;28;20049;-67
2023/12/01 12:09:18;;;;;;;11.88;8.60;;;4.30;90.20;;;;;;5007617;28;20053;-66
2023/12/01 12:11:45;;;;;;;11.98;8.73;;;4.30;90.10;;;;;;5006024;28;20045;-65
2023/12/01 12:14:12;;;;;;;10.43;7.80;;;4.30;90.10;;;;;;4990322;28;20545;-66
2023/12/01 12:16:38;;;;;;;10.98;8.30;;;4.30;90.10;;;;;;5007596;28;20092;-65
2023/12/01 12:19:03;;;;;;;11.50;8.48;;;4.30;90.10;;;;;;5007598;28;20034;-66
2023/12/01 12:21:30;;;;;;;11.07;8.48;;;4.30;90.10;;;;;;4998876;28;20040;-65
2023/12/01 12:23:56;;;;;;;11.93;8.15;;;4.30;90.10;;;;;;5008595;28;20526;-66
2023/12/01 12:26:26;;;;;;;10.55;7.75;;;4.30;90.00;;;;;;5007494;28;20513;-65
2023/12/01 12:28:55;;;;;;;10.43;8.13;;;4.30;90.10;;;;;;5009606;28;20030;-66
2023/12/01 12:31:25;;;;;;;12.00;8.68;;;4.30;90.10;;;;;;5006774;28;20041;-65
2023/12/01 12:33:56;;;;;;;11.18;8.38;;;4.30;90.10;;;;;;5008860;28;20030;-65
2023/12/01 12:36:23;;;;;;;11.60;8.40;;;4.30;90.10;;;;;;5007624;28;20038;-66
2023/12/01 12:38:50;;;;;;;12.05;8.60;;;4.30;90.10;;;;;;4998857;28;20505;-66
2023/12/01 12:41:25;;;;;;;11.35;8.30;;;4.30;90.10;;;;;;5008660;28;20056;-66
2023/12/01 12:43:52;;;;;;;11.23;8.50;;;4.30;90.10;;;;;;5007361;28;20120;-66
2023/12/01 12:46:18;;;;;;;10.75;7.82;;;4.30;90.10;;;;;;5007156;28;20065;-67
2023/12/01 12:48:44;;;;;;;10.98;8.30;;;4.30;90.10;;;;;;5006659;28;20406;-66
2023/12/01 12:51:17;;;;;;;12.07;8.57;;;4.30;90.10;;;;;;5008039;28;20040;-66
2023/12/01 12:53:45;;;;;;;14.23;9.25;;;4.30;90.10;;;;;;5008052;28;20746;-66
2023/12/01 12:56:14;;;;;;;13.38;8.93;;;4.30;90.10;;;;;;5007233;28;20068;-67